»·PEaware :: N5954W KOTH-KEUG

N5954W :: KOTH-KEUG

FLIGHT INFORMATION

Flight Status: Arrived
Operator: Privately registered:
United States
More flights under this callsign
Pilot: Joshua M. (19482)
Aircraft: BEECH AIRCRAFT BARON
(BE58)
More flights by this aircraft type
Origin: KOTH North Bend Mun
United States
Destination: KEUG Mahlon Sweet
United States
More flights between these airports :: More routes between these airports
Route:
File this flight plan on PilotEdge
Remarks:
Altitude:
(Current/Filed)
0ft
Speed:
(Current/Filed)
0kts
Departed: 25-Aug-18 02:00 PM
Arrived: 25-Aug-18 02:36 PM
Distance/Time
Traveled:
62nm/0:36
Distance/Time
To Go:
Arrived

Flight Plot

Page will automatically refresh every two minutes.

Flight plan parsing failed; only flown route is shown


Map Options




Map Legend


Flown Route
Filed Route
Departure Airport
Arrival Airport
Navaid (VOR, NDB)
Fix

Horizontal Profiles

Position Reports

Time Latitude Longitude Heading Altitude Ground
Speed
25-Aug-18 13:45 43.415502 -124.245644 330 18ft 0kts
25-Aug-18 13:46 43.415502 -124.245644 330 18ft 0kts
25-Aug-18 13:47 43.415502 -124.245644 330 18ft 0kts
25-Aug-18 13:48 43.415502 -124.245644 330 18ft 0kts
25-Aug-18 13:49 43.415502 -124.245644 330 18ft 0kts
25-Aug-18 13:50 43.415502 -124.245644 330 18ft 0kts
25-Aug-18 13:51 43.415502 -124.245644 330 18ft 0kts
25-Aug-18 13:52 43.415784 -124.245698 22 18ft 1kts
25-Aug-18 13:53 43.415974 -124.245287 54 18ft 0kts
25-Aug-18 13:54 43.415567 -124.244231 147 18ft 17kts
25-Aug-18 13:55 43.415336 -124.244040 151 18ft 19kts
25-Aug-18 13:56 43.408937 -124.238638 0 18ft 0kts
25-Aug-18 13:57 43.409989 -124.238303 329 18ft 0kts
25-Aug-18 13:58 43.415508 -124.245649 330 18ft 0kts
25-Aug-18 13:59 43.416005 -124.245291 26 18ft 0kts
25-Aug-18 14:00 43.413163 -124.242326 147 18ft 31kts
25-Aug-18 14:01 43.410785 -124.238926 327 18ft 58kts
25-Aug-18 14:02 43.437102 -124.248775 13 951ft 117kts
25-Aug-18 14:03 43.460765 -124.225060 56 2255ft 134kts
25-Aug-18 14:04 43.482058 -124.196566 34 3299ft 131kts
25-Aug-18 14:05 43.503385 -124.168726 37 4295ft 132kts
25-Aug-18 14:06 43.527304 -124.135220 40 4513ft 167kts
25-Aug-18 14:07 43.554675 -124.094862 41 4716ft 169kts
25-Aug-18 14:08 43.579344 -124.057836 41 4929ft 169kts
25-Aug-18 14:09 43.604149 -124.020329 41 5174ft 167kts
25-Aug-18 14:10 43.631273 -123.979134 41 5494ft 166kts
25-Aug-18 14:11 43.661775 -123.932700 41 5507ft 176kts
25-Aug-18 14:12 43.691849 -123.886769 42 5506ft 177kts
25-Aug-18 14:13 43.718261 -123.846339 41 5506ft 177kts
25-Aug-18 14:14 43.744932 -123.805465 42 5506ft 177kts
25-Aug-18 14:15 43.773674 -123.761340 41 5505ft 177kts
25-Aug-18 14:16 43.804984 -123.713181 41 5505ft 177kts
25-Aug-18 14:17 43.831402 -123.672483 42 5506ft 177kts
25-Aug-18 14:18 43.857007 -123.633030 41 5505ft 177kts
25-Aug-18 14:19 43.881002 -123.595999 41 5505ft 177kts
25-Aug-18 14:20 43.909304 -123.551990 42 5503ft 174kts
25-Aug-18 14:21 43.938067 -123.507792 42 5505ft 177kts
25-Aug-18 14:22 43.967878 -123.461430 41 5505ft 177kts
25-Aug-18 14:23 43.997023 -123.416193 42 5505ft 177kts
25-Aug-18 14:24 44.026016 -123.370717 42 5095ft 172kts
25-Aug-18 14:25 44.049692 -123.331370 43 3976ft 116kts
25-Aug-18 14:26 44.067314 -123.299870 44 2678ft 113kts
25-Aug-18 14:27 44.070385 -123.258698 82 1779ft 119kts
25-Aug-18 14:28 44.071300 -123.221110 36 1138ft 90kts
25-Aug-18 14:29 44.091941 -123.217801 357 853ft 86kts
25-Aug-18 14:30 44.111375 -123.218664 357 467ft 84kts
25-Aug-18 14:31 44.125465 -123.218961 355 375ft 70kts
25-Aug-18 14:32 44.145406 -123.230669 275 1012ft 132kts
25-Aug-18 14:33 44.128379 -123.255348 178 1355ft 161kts
25-Aug-18 14:34 44.092168 -123.251319 166 1327ft 124kts
25-Aug-18 14:35 44.083091 -123.222131 69 847ft 100kts
25-Aug-18 14:36 44.105401 -123.218764 357 623ft 105kts
25-Aug-18 14:37 44.120916 -123.217713 90 375ft 10kts
25-Aug-18 14:38 44.121224 -123.212991 43 375ft 14kts

Navigation Log

Ident Type
Flight plan parsing failed, navigation log unavailable